Time,TemperatureF,DewpointF,PressureIn,WindDirection,WindDirectionDegrees,WindSpeedMPH,WindSpeedGustMPH,Humidity,HourlyPrecipIn,Conditions,Clouds,dailyrainin,SoftwareType,DateUTC
2013-06-20 00:01:00,69.0,48.0,29.40,SSW,202,0.0,0.0,47,0.00,,,0.00,,2013-06-20 06:01:00,
2013-06-20 00:11:00,69.0,48.0,29.40,SSW,202,0.0,0.0,47,0.00,,,0.00,,2013-06-20 06:11:00,
2013-06-20 00:22:00,70.0,44.0,29.41,South,182,0.0,0.0,39,0.00,,,0.00,,2013-06-20 06:22:00,
2013-06-20 00:33:00,70.0,41.0,29.41,South,175,0.0,0.0,35,0.00,,,0.00,,2013-06-20 06:33:00,
2013-06-20 00:43:00,70.0,41.0,29.41,South,175,0.0,0.0,35,0.00,,,0.00,,2013-06-20 06:43:00,
2013-06-20 00:53:00,69.0,39.0,29.41,West,278,0.0,0.0,33,0.00,,,0.00,,2013-06-20 06:53:00,
2013-06-20 01:01:00,69.0,36.0,29.40,West,267,0.0,0.0,30,0.00,,,0.00,,2013-06-20 07:01:00,
2013-06-20 01:12:00,69.0,36.0,29.40,West,267,0.0,0.0,30,0.00,,,0.00,,2013-06-20 07:12:00,
2013-06-20 01:22:00,68.0,38.0,29.41,South,175,0.0,2.0,33,0.00,,,0.00,,2013-06-20 07:22:00,
2013-06-20 01:34:00,68.0,35.0,29.41,SSW,194,0.0,0.0,30,0.00,,,0.00,,2013-06-20 07:34:00,
2013-06-20 01:44:00,68.0,35.0,29.41,SSW,194,0.0,0.0,30,0.00,,,0.00,,2013-06-20 07:44:00,
2013-06-20 01:53:00,66.0,36.0,29.42,SSW,194,0.0,0.0,33,0.00,,,0.00,,2013-06-20 07:53:00,
2013-06-20 02:02:00,65.0,37.0,29.42,SSW,194,0.0,0.0,35,0.00,,,0.00,,2013-06-20 08:02:00,
2013-06-20 02:11:00,65.0,37.0,29.42,SSW,194,0.0,0.0,35,0.00,,,0.00,,2013-06-20 08:11:00,
2013-06-20 02:22:00,63.0,32.0,29.42,SSW,194,0.0,0.0,31,0.00,,,0.00,,2013-06-20 08:22:00,
2013-06-20 02:34:00,63.0,34.0,29.42,SSW,194,0.0,0.0,34,0.00,,,0.00,,2013-06-20 08:34:00,
2013-06-20 02:43:00,63.0,34.0,29.42,SSW,194,0.0,0.0,34,0.00,,,0.00,,2013-06-20 08:43:00,
2013-06-20 02:53:00,62.0,35.0,29.42,SSW,194,0.0,0.0,37,0.00,,,0.00,,2013-06-20 08:53:00,
2013-06-20 03:02:00,63.0,29.0,29.43,South,187,0.0,2.0,27,0.00,,,0.00,,2013-06-20 09:02:00,
2013-06-20 03:12:00,63.0,29.0,29.43,South,187,0.0,2.0,27,0.00,,,0.00,,2013-06-20 09:12:00,
2013-06-20 03:22:00,65.0,27.0,29.43,South,177,0.0,5.0,24,0.00,,,0.00,,2013-06-20 09:22:00,
2013-06-20 03:33:00,65.0,28.0,29.44,South,177,0.0,0.0,25,0.00,,,0.00,,2013-06-20 09:33:00,
2013-06-20 03:42:00,65.0,28.0,29.44,South,177,0.0,0.0,25,0.00,,,0.00,,2013-06-20 09:42:00,
2013-06-20 03:52:00,64.0,30.0,29.44,South,177,0.0,0.0,28,0.00,,,0.00,,2013-06-20 09:52:00,
2013-06-20 04:01:00,62.0,32.0,29.44,South,177,0.0,0.0,32,0.00,,,0.00,,2013-06-20 10:01:00,
2013-06-20 04:11:00,62.0,32.0,29.44,South,177,0.0,0.0,32,0.00,,,0.00,,2013-06-20 10:11:00,
2013-06-20 04:22:00,60.0,32.0,29.45,South,177,0.0,0.0,34,0.00,,,0.00,,2013-06-20 10:22:00,
2013-06-20 04:33:00,58.0,31.0,29.46,South,177,0.0,0.0,36,0.00,,,0.00,,2013-06-20 10:33:00,
2013-06-20 04:43:00,58.0,31.0,29.46,South,177,0.0,0.0,36,0.00,,,0.00,,2013-06-20 10:43:00,
2013-06-20 04:53:00,57.0,34.0,29.47,South,177,0.0,0.0,41,0.00,,,0.00,,2013-06-20 10:53:00,
2013-06-20 05:02:00,56.0,34.0,29.48,South,177,0.0,0.0,43,0.00,,,0.00,,2013-06-20 11:02:00,
2013-06-20 05:11:00,56.0,34.0,29.48,South,177,0.0,0.0,43,0.00,,,0.00,,2013-06-20 11:11:00,
2013-06-20 05:22:00,56.0,38.0,29.49,South,177,0.0,0.0,51,0.00,,,0.00,,2013-06-20 11:22:00,
2013-06-20 05:34:00,56.0,41.0,29.50,South,177,0.0,0.0,58,0.00,,,0.00,,2013-06-20 11:34:00,
2013-06-20 05:42:00,56.0,41.0,29.50,South,177,0.0,0.0,58,0.00,,,0.00,,2013-06-20 11:42:00,
2013-06-20 05:53:00,56.0,44.0,29.51,South,177,0.0,0.0,64,0.00,,,0.00,,2013-06-20 11:53:00,
2013-06-20 06:02:00,56.0,46.0,29.52,South,177,0.0,0.0,70,0.00,,,0.00,,2013-06-20 12:02:00,
2013-06-20 06:11:00,56.0,46.0,29.52,South,177,0.0,0.0,70,0.00,,,0.00,,2013-06-20 12:11:00,
2013-06-20 06:22:00,56.0,47.0,29.53,SSE,166,0.0,0.0,73,0.00,,,0.00,,2013-06-20 12:22:00,
2013-06-20 06:34:00,57.0,48.0,29.53,SSE,166,0.0,0.0,71,0.00,,,0.00,,2013-06-20 12:34:00,
2013-06-20 06:43:00,57.0,48.0,29.53,SSE,166,0.0,0.0,71,0.00,,,0.00,,2013-06-20 12:43:00,
2013-06-20 06:53:00,57.0,48.0,29.54,SSE,166,0.0,0.0,72,0.00,,,0.00,,2013-06-20 12:53:00,
2013-06-20 07:02:00,58.0,49.0,29.55,ESE,123,0.0,0.0,72,0.00,,,0.00,,2013-06-20 13:02:00,
2013-06-20 07:11:00,58.0,49.0,29.55,ESE,123,0.0,0.0,72,0.00,,,0.00,,2013-06-20 13:11:00,
2013-06-20 07:22:00,60.0,50.0,29.55,ESE,123,0.0,0.0,70,0.00,,,0.00,,2013-06-20 13:22:00,
2013-06-20 07:33:00,62.0,51.0,29.56,ESE,123,0.0,1.0,67,0.00,,,0.00,,2013-06-20 13:33:00,
2013-06-20 07:42:00,62.0,51.0,29.56,ESE,123,0.0,1.0,67,0.00,,,0.00,,2013-06-20 13:42:00,
2013-06-20 07:53:00,64.0,52.0,29.56,ENE,70,0.0,1.0,64,0.00,,,0.00,,2013-06-20 13:53:00,
2013-06-20 08:01:00,66.0,52.0,29.57,SSE,163,0.0,0.0,61,0.00,,,0.00,,2013-06-20 14:01:00,
2013-06-20 08:11:00,66.0,52.0,29.57,SSE,163,0.0,0.0,61,0.00,,,0.00,,2013-06-20 14:11:00,
2013-06-20 08:22:00,67.0,52.0,29.57,South,180,0.0,0.0,58,0.00,,,0.00,,2013-06-20 14:22:00,
2013-06-20 08:32:00,69.0,52.0,29.57,South,182,0.0,4.0,54,0.00,,,0.00,,2013-06-20 14:32:00,
2013-06-20 08:42:00,69.0,52.0,29.57,South,182,0.0,4.0,54,0.00,,,0.00,,2013-06-20 14:42:00,
2013-06-20 08:53:00,71.0,51.0,29.57,SSE,164,0.0,3.0,50,0.00,,,0.00,,2013-06-20 14:53:00,
2013-06-20 09:02:00,72.0,48.0,29.58,South,187,0.0,4.0,42,0.00,,,0.00,,2013-06-20 15:02:00,
2013-06-20 09:11:00,72.0,48.0,29.58,South,187,0.0,4.0,42,0.00,,,0.00,,2013-06-20 15:11:00,
2013-06-20 09:22:00,73.0,45.0,29.58,SSW,198,1.0,7.0,37,0.00,,,0.00,,2013-06-20 15:22:00,
2013-06-20 09:33:00,75.0,41.0,29.58,SSE,153,1.0,4.0,29,0.00,,,0.00,,2013-06-20 15:33:00,
2013-06-20 09:43:00,75.0,41.0,29.58,SSE,153,1.0,4.0,29,0.00,,,0.00,,2013-06-20 15:43:00,
2013-06-20 09:53:00,76.0,39.0,29.58,South,190,1.0,4.0,26,0.00,,,0.00,,2013-06-20 15:53:00,
2013-06-20 10:22:00,77.0,32.0,29.58,NE,38,0.0,9.0,19,0.00,,,0.00,,2013-06-20 16:22:00,
2013-06-20 10:33:00,79.0,32.0,29.58,NE,39,0.0,6.0,18,0.00,,,0.00,,2013-06-20 16:33:00,
2013-06-20 10:42:00,79.0,32.0,29.58,NE,39,0.0,6.0,18,0.00,,,0.00,,2013-06-20 16:42:00,
2013-06-20 10:52:00,79.0,29.0,29.58,North,9,3.0,6.0,16,0.00,,,0.00,,2013-06-20 16:52:00,
2013-06-20 11:01:00,79.0,29.0,29.58,ESE,113,1.0,8.0,16,0.00,,,0.00,,2013-06-20 17:01:00,
2013-06-20 11:11:00,79.0,29.0,29.58,ESE,113,1.0,8.0,16,0.00,,,0.00,,2013-06-20 17:11:00,
2013-06-20 11:22:00,79.0,26.0,29.58,North,355,1.0,9.0,14,0.00,,,0.00,,2013-06-20 17:22:00,
2013-06-20 11:32:00,79.0,24.0,29.57,East,98,3.0,11.0,13,0.00,,,0.00,,2013-06-20 17:32:00,
2013-06-20 11:43:00,79.0,24.0,29.57,East,98,3.0,11.0,13,0.00,,,0.00,,2013-06-20 17:43:00,
2013-06-20 11:53:00,80.0,27.0,29.57,SSE,151,2.0,8.0,14,0.00,,,0.00,,2013-06-20 17:53:00,
2013-06-20 12:01:00,81.0,29.0,29.57,ESE,121,2.0,9.0,15,0.00,,,0.00,,2013-06-20 18:01:00,
2013-06-20 12:11:00,81.0,29.0,29.57,ESE,121,2.0,9.0,15,0.00,,,0.00,,2013-06-20 18:11:00,
2013-06-20 12:22:00,82.0,26.0,29.57,ESE,104,3.0,7.0,13,0.00,,,0.00,,2013-06-20 18:22:00,
2013-06-20 12:33:00,81.0,27.0,29.57,SE,141,2.0,7.0,14,0.00,,,0.00,,2013-06-20 18:33:00,
2013-06-20 12:43:00,81.0,27.0,29.57,SE,141,2.0,7.0,14,0.00,,,0.00,,2013-06-20 18:43:00,
2013-06-20 12:53:00,82.0,30.0,29.57,NNE,30,4.0,7.0,15,0.00,,,0.00,,2013-06-20 18:53:00,
2013-06-20 13:01:00,82.0,28.0,29.56,ENE,59,1.0,13.0,14,0.00,,,0.00,,2013-06-20 19:01:00,
2013-06-20 13:11:00,82.0,28.0,29.56,ENE,59,1.0,13.0,14,0.00,,,0.00,,2013-06-20 19:11:00,
2013-06-20 13:22:00,83.0,29.0,29.56,ESE,102,2.0,9.0,14,0.00,,,0.00,,2013-06-20 19:22:00,
2013-06-20 13:34:00,84.0,28.0,29.55,SSE,165,2.0,10.0,13,0.00,,,0.00,,2013-06-20 19:34:00,
2013-06-20 13:43:00,84.0,28.0,29.55,SSE,165,2.0,10.0,13,0.00,,,0.00,,2013-06-20 19:43:00,
2013-06-20 13:52:00,85.0,27.0,29.54,SE,137,2.0,8.0,12,0.00,,,0.00,,2013-06-20 19:52:00,
2013-06-20 14:02:00,86.0,29.0,29.53,SW,229,3.0,9.0,13,0.00,,,0.00,,2013-06-20 20:02:00,
2013-06-20 14:11:00,86.0,29.0,29.53,SW,229,3.0,9.0,13,0.00,,,0.00,,2013-06-20 20:11:00,
2013-06-20 14:22:00,87.0,28.0,29.53,SE,124,3.0,8.0,12,0.00,,,0.00,,2013-06-20 20:22:00,
2013-06-20 14:33:00,87.0,26.0,29.52,SE,137,4.0,11.0,11,0.00,,,0.00,,2013-06-20 20:33:00,
2013-06-20 14:42:00,87.0,26.0,29.52,SE,137,4.0,11.0,11,0.00,,,0.00,,2013-06-20 20:42:00,
2013-06-20 14:52:00,87.0,30.0,29.52,NE,46,2.0,6.0,13,0.00,,,0.00,,2013-06-20 20:52:00,
2013-06-20 15:01:00,87.0,30.0,29.51,ESE,122,0.0,7.0,13,0.00,,,0.00,,2013-06-20 21:01:00,
2013-06-20 18:11:00,89.0,30.0,29.47,North,360,7.0,11.0,12,0.00,,,0.00,,2013-06-21 00:11:00,